Time;durP1;ratioP1;P1;durP2;ratioP2;P2;SDS_P1;SDS_P2;PMS_P1;PMS_P2;Temp;Humidity;BMP_temperature;BMP_pressure;BME280_temperature;BME280_humidity;BME280_pressure;Samples;Min_cycle;Max_cycle;Signal;HPM_P1;HPM_P2
2021/04/09 00:01:35;;;;;;;6.25;5.20;;;;;;;;;;5002874;28;20217;-96
2021/04/09 00:12:39;;;;;;;11.68;7.50;;;;;;;;;;5025630;28;20213;-96
2021/04/09 00:15:08;;;;;;;8.38;7.30;;;;;;;;;;5007215;28;20244;-96
2021/04/09 00:17:35;;;;;;;8.52;6.57;;;;;;;;;;5019128;28;20272;-96
2021/04/09 00:20:04;;;;;;;10.73;7.57;;;;;;;;;;5021992;28;20201;-96
2021/04/09 00:22:51;;;;;;;12.20;8.27;;;;;;;;;;5007245;28;20198;-96
2021/04/09 00:25:18;;;;;;;11.32;7.75;;;;;;;;;;5038155;23;20228;-96
2021/04/09 00:27:46;;;;;;;11.15;8.27;;;;;;;;;;5030331;28;20204;-95
2021/04/09 00:30:17;;;;;;;11.38;7.82;;;;;;;;;;5021685;28;20188;-96
2021/04/09 00:32:43;;;;;;;11.82;8.68;;;;;;;;;;5014676;28;20218;-96
2021/04/09 00:35:10;;;;;;;12.25;8.65;;;;;;;;;;5020240;28;20254;-96
2021/04/09 00:37:37;;;;;;;11.50;8.45;;;;;;;;;;5036647;28;20395;-96
2021/04/09 00:40:04;;;;;;;15.95;8.10;;;;;;;;;;5034507;28;20204;-96
2021/04/09 00:42:38;;;;;;;10.82;7.50;;;;;;;;;;5034117;28;20230;-96
2021/04/09 00:45:14;;;;;;;10.52;8.13;;;;;;;;;;5032212;28;20219;-96
2021/04/09 00:48:00;;;;;;;10.45;8.15;;;;;;;;;;5031120;28;20238;-96
2021/04/09 00:50:29;;;;;;;10.35;7.90;;;;;;;;;;5031531;28;20209;-96
2021/04/09 00:52:57;;;;;;;11.73;8.07;;;;;;;;;;5021411;28;20204;-96
2021/04/09 00:55:27;;;;;;;9.95;8.30;;;;;;;;;;5025895;28;20277;-96
2021/04/09 00:57:54;;;;;;;11.23;8.05;;;;;;;;;;5028500;28;20276;-96
2021/04/09 01:00:26;;;;;;;10.48;8.15;;;;;;;;;;5026112;28;20197;-96
2021/04/09 01:06:05;;;;;;;10.95;7.78;;;;;;;;;;5019197;28;20193;-96
2021/04/09 01:12:05;;;;;;;11.05;6.82;;;;;;;;;;5029201;28;20193;-96
2021/04/09 01:14:43;;;;;;;11.05;7.75;;;;;;;;;;5017508;28;20232;-96
2021/04/09 01:17:19;;;;;;;10.27;6.50;;;;;;;;;;5031190;28;20201;-96
2021/04/09 01:20:15;;;;;;;8.25;6.30;;;;;;;;;;5027913;28;20242;-96
2021/04/09 01:28:56;;;;;;;8.82;6.22;;;;;;;;;;5031223;28;20218;-96
2021/04/09 01:34:27;;;;;;;8.55;5.57;;;;;;;;;;5024738;28;20232;-96
2021/04/09 01:36:56;;;;;;;9.98;6.20;;;;;;;;;;5030256;28;20232;-96
2021/04/09 01:39:28;;;;;;;8.05;6.95;;;;;;;;;;5027456;28;20221;-96
2021/04/09 01:42:09;;;;;;;8.70;6.15;;;;;;;;;;5030322;28;20217;-96
2021/04/09 01:44:38;;;;;;;9.65;6.68;;;;;;;;;;5037251;23;20212;-96
2021/04/09 01:47:05;;;;;;;13.52;8.38;;;;;;;;;;5032540;28;20201;-96
2021/04/09 01:49:34;;;;;;;8.98;7.88;;;;;;;;;;5034121;28;20197;-96
2021/04/09 01:52:01;;;;;;;11.52;8.45;;;;;;;;;;5018830;28;20223;-96
2021/04/09 01:54:32;;;;;;;13.27;8.73;;;;;;;;;;5020767;28;20255;-96
2021/04/09 01:59:45;;;;;;;12.23;6.88;;;;;;;;;;5037686;28;20200;-96
2021/04/09 02:02:16;;;;;;;9.13;7.75;;;;;;;;;;5036078;28;20205;-96
2021/04/09 02:04:44;;;;;;;9.98;8.80;;;;;;;;;;5033017;28;20213;-96
2021/04/09 02:07:10;;;;;;;10.35;8.10;;;;;;;;;;5035795;28;20273;-96
2021/04/09 02:09:40;;;;;;;11.10;8.60;;;;;;;;;;5034981;28;20202;-96
2021/04/09 02:12:12;;;;;;;9.93;7.43;;;;;;;;;;5050644;28;20187;-96
2021/04/09 02:14:39;;;;;;;11.10;7.95;;;;;;;;;;5061294;28;20272;-95
2021/04/09 02:20:02;;;;;;;12.30;9.07;;;;;;;;;;5040102;28;20204;-96
2021/04/09 02:22:33;;;;;;;16.95;10.63;;;;;;;;;;5032161;28;20301;-96
2021/04/09 02:25:01;;;;;;;16.88;11.10;;;;;;;;;;5015958;28;20201;-96
2021/04/09 02:30:30;;;;;;;16.15;9.73;;;;;;;;;;5038538;28;20210;-96
2021/04/09 02:33:10;;;;;;;13.38;8.70;;;;;;;;;;5030544;28;20635;-96
2021/04/09 02:35:37;;;;;;;14.20;9.00;;;;;;;;;;5030014;28;20205;-96
2021/04/09 02:38:31;;;;;;;13.98;10.27;;;;;;;;;;5046690;28;20227;-96
2021/04/09 02:41:01;;;;;;;11.20;9.45;;;;;;;;;;5036273;23;20252;-96
2021/04/09 02:43:28;;;;;;;13.55;8.75;;;;;;;;;;5003346;28;20206;-96
2021/04/09 02:45:54;;;;;;;9.15;7.53;;;;;;;;;;4995435;28;20229;-96
2021/04/09 02:48:31;;;;;;;10.70;8.60;;;;;;;;;;5001558;28;20224;-96
2021/04/09 02:54:12;;;;;;;13.73;8.63;;;;;;;;;;5003376;28;20214;-96
2021/04/09 03:13:44;;;;;;;9.57;8.43;;;;;;;;;;5069988;23;20263;-95
2021/04/09 03:16:11;;;;;;;12.07;8.35;;;;;;;;;;5018755;28;20501;-96
2021/04/09 03:18:41;;;;;;;10.27;8.50;;;;;;;;;;4995464;28;20209;-96
2021/04/09 03:21:08;;;;;;;13.00;8.43;;;;;;;;;;5015507;28;20243;-96
2021/04/09 03:23:34;;;;;;;14.18;9.38;;;;;;;;;;5020108;28;21415;-96
2021/04/09 03:29:10;;;;;;;13.63;9.40;;;;;;;;;;5017276;28;20205;-96
2021/04/09 03:31:36;;;;;;;10.15;8.32;;;;;;;;;;5033400;28;20193;-96
2021/04/09 03:34:03;;;;;;;14.02;7.93;;;;;;;;;;5017031;28;20209;-96
2021/04/09 03:36:29;;;;;;;11.27;8.20;;;;;;;;;;5024353;28;20214;-96
2021/04/09 03:38:56;;;;;;;14.43;9.93;;;;;;;;;;5025835;28;20196;-96
2021/04/09 03:41:22;;;;;;;14.23;10.48;;;;;;;;;;5020991;28;20211;-96
2021/04/09 03:43:48;;;;;;;12.98;8.73;;;;;;;;;;5011194;28;20244;-96
2021/04/09 03:46:16;;;;;;;10.32;8.80;;;;;;;;;;5021054;28;20217;-96
2021/04/09 03:48:42;;;;;;;11.65;8.63;;;;;;;;;;5014880;28;20611;-96
2021/04/09 03:56:31;;;;;;;12.32;8.32;;;;;;;;;;5827949;22;20240;-96
2021/04/09 03:58:57;;;;;;;15.20;9.13;;;;;;;;;;5009453;28;20209;-96
2021/04/09 04:01:27;;;;;;;14.57;8.27;;;;;;;;;;5026727;28;20212;-96
2021/04/09 04:03:53;;;;;;;11.60;8.98;;;;;;;;;;5027544;28;20277;-96
2021/04/09 04:06:19;;;;;;;16.70;10.65;;;;;;;;;;5033323;28;20212;-96
2021/04/09 04:08:45;;;;;;;12.20;9.30;;;;;;;;;;5031817;28;20219;-96
2021/04/09 04:11:12;;;;;;;13.07;9.40;;;;;;;;;;5039618;28;20198;-96
2021/04/09 04:13:38;;;;;;;19.35;11.40;;;;;;;;;;5033152;28;20220;-96
2021/04/09 04:16:04;;;;;;;14.23;9.45;;;;;;;;;;5022784;28;20267;-96
2021/04/09 04:18:32;;;;;;;13.25;9.43;;;;;;;;;;5024293;28;20219;-96
2021/04/09 04:20:58;;;;;;;17.10;10.93;;;;;;;;;;5024784;28;20216;-96
2021/04/09 04:23:24;;;;;;;22.60;13.30;;;;;;;;;;5020701;28;20239;-96
2021/04/09 04:25:50;;;;;;;17.42;11.93;;;;;;;;;;5025251;28;20207;-96
2021/04/09 04:28:16;;;;;;;15.93;11.38;;;;;;;;;;5021033;28;20217;-96
2021/04/09 04:30:42;;;;;;;14.15;11.52;;;;;;;;;;5024746;28;20230;-96
2021/04/09 04:33:08;;;;;;;18.77;12.77;;;;;;;;;;5020975;28;20624;-96
2021/04/09 04:35:41;;;;;;;18.55;10.80;;;;;;;;;;5034628;28;20240;-96
2021/04/09 04:38:09;;;;;;;13.48;9.35;;;;;;;;;;5033902;28;20208;-96
2021/04/09 04:40:36;;;;;;;12.70;9.88;;;;;;;;;;5018332;28;20196;-96
2021/04/09 04:43:02;;;;;;;14.63;10.45;;;;;;;;;;5025140;28;20217;-96
2021/04/09 04:45:28;;;;;;;12.23;9.73;;;;;;;;;;5016366;28;20197;-96
2021/04/09 04:47:54;;;;;;;13.50;9.68;;;;;;;;;;5034327;28;20527;-95
2021/04/09 04:50:20;;;;;;;12.73;9.18;;;;;;;;;;5034986;28;20207;-96
2021/04/09 04:55:31;;;;;;;14.57;9.30;;;;;;;;;;5028787;28;20244;-96
2021/04/09 04:58:26;;;;;;;14.05;10.60;;;;;;;;;;5014132;28;20220;-96
2021/04/09 05:00:54;;;;;;;14.40;10.15;;;;;;;;;;5033830;28;20204;-96
2021/04/09 05:03:37;;;;;;;16.65;12.07;;;;;;;;;;5034100;28;20205;-96
2021/04/09 05:14:54;;;;;;;19.67;15.00;;;;;;;;;;5033121;28;20233;-96
2021/04/09 05:17:36;;;;;;;22.55;15.68;;;;;;;;;;5019703;28;20241;-96
2021/04/09 05:34:19;;;;;;;19.65;15.25;;;;;;;;;;5164803;23;20275;-96
2021/04/09 05:36:45;;;;;;;24.50;17.77;;;;;;;;;;5036903;28;20193;-96
2021/04/09 05:39:11;;;;;;;25.60;18.02;;;;;;;;;;5036207;28;20208;-96
2021/04/09 05:41:37;;;;;;;22.98;17.30;;;;;;;;;;5044944;28;20205;-96
2021/04/09 05:44:06;;;;;;;29.73;19.90;;;;;;;;;;5022973;28;20207;-96
2021/04/09 05:46:34;;;;;;;33.95;19.45;;;;;;;;;;5042786;28;20197;-96
2021/04/09 05:49:01;;;;;;;30.60;18.38;;;;;;;;;;5024844;28;20187;-96
2021/04/09 05:51:29;;;;;;;25.02;17.10;;;;;;;;;;5127140;23;20240;-96
2021/04/09 05:53:55;;;;;;;27.70;17.90;;;;;;;;;;5036318;28;20568;-96
2021/04/09 05:56:22;;;;;;;25.67;18.80;;;;;;;;;;5010056;28;20235;-96
2021/04/09 05:58:49;;;;;;;25.42;18.45;;;;;;;;;;5024489;28;20201;-96
2021/04/09 06:01:15;;;;;;;24.63;15.73;;;;;;;;;;5031368;28;20196;-96
2021/04/09 06:03:42;;;;;;;16.20;10.73;;;;;;;;;;5025836;28;20201;-96
2021/04/09 06:06:08;;;;;;;12.30;8.27;;;;;;;;;;5024053;28;20664;-96
2021/04/09 06:08:35;;;;;;;15.13;10.02;;;;;;;;;;5024592;28;20262;-95
2021/04/09 06:11:01;;;;;;;10.60;8.18;;;;;;;;;;5018284;28;20232;-96
2021/04/09 06:13:29;;;;;;;10.32;9.23;;;;;;;;;;5022396;28;20212;-96
2021/04/09 06:15:55;;;;;;;11.73;8.80;;;;;;;;;;5019962;28;20201;-94
2021/04/09 06:18:21;;;;;;;10.77;7.95;;;;;;;;;;5019225;28;20278;-95
2021/04/09 06:20:47;;;;;;;12.13;9.25;;;;;;;;;;5016244;28;20211;-96
2021/04/09 06:23:13;;;;;;;11.23;8.10;;;;;;;;;;5018573;28;20207;-94
2021/04/09 06:25:40;;;;;;;8.60;7.57;;;;;;;;;;5009987;28;20445;-94
2021/04/09 06:28:06;;;;;;;10.75;8.25;;;;;;;;;;5015475;28;20463;-96
2021/04/09 06:30:32;;;;;;;12.93;8.77;;;;;;;;;;5019151;28;20203;-95
2021/04/09 06:32:58;;;;;;;13.10;9.63;;;;;;;;;;5011015;28;20852;-94
2021/04/09 06:35:24;;;;;;;11.10;8.33;;;;;;;;;;5026537;28;20519;-94
2021/04/09 06:37:50;;;;;;;12.75;9.48;;;;;;;;;;5010923;28;20458;-95
2021/04/09 06:40:17;;;;;;;11.53;9.20;;;;;;;;;;5010053;28;20223;-95
2021/04/09 06:42:44;;;;;;;12.02;8.93;;;;;;;;;;5019593;28;20457;-94
2021/04/09 06:45:10;;;;;;;13.00;9.05;;;;;;;;;;5024777;28;20207;-95
2021/04/09 06:47:36;;;;;;;14.40;9.55;;;;;;;;;;5024762;28;20213;-95
2021/04/09 06:50:03;;;;;;;13.65;10.10;;;;;;;;;;5022411;28;20997;-94
2021/04/09 06:52:29;;;;;;;11.60;8.60;;;;;;;;;;5028999;28;20217;-93
2021/04/09 06:54:55;;;;;;;12.00;8.88;;;;;;;;;;5018845;28;20242;-94
2021/04/09 06:57:22;;;;;;;10.20;7.30;;;;;;;;;;5020674;28;20221;-95
2021/04/09 06:59:50;;;;;;;12.93;7.97;;;;;;;;;;5016398;28;20215;-96
2021/04/09 07:02:17;;;;;;;8.77;6.23;;;;;;;;;;5018879;28;20222;-95
2021/04/09 07:04:44;;;;;;;9.68;6.10;;;;;;;;;;5017981;28;20496;-95
2021/04/09 07:07:11;;;;;;;9.82;5.88;;;;;;;;;;5023333;28;20195;-96
2021/04/09 07:09:37;;;;;;;11.77;6.30;;;;;;;;;;5028337;28;20215;-96
2021/04/09 07:12:04;;;;;;;11.17;5.87;;;;;;;;;;5023764;28;20208;-96
2021/04/09 07:14:45;;;;;;;12.63;6.63;;;;;;;;;;5024720;28;20501;-94
2021/04/09 07:17:21;;;;;;;11.93;7.60;;;;;;;;;;5019958;28;20204;-96
2021/04/09 07:19:47;;;;;;;9.80;6.50;;;;;;;;;;5023278;28;20455;-96
2021/04/09 07:22:13;;;;;;;14.50;9.80;;;;;;;;;;5024303;28;20968;-95
2021/04/09 07:24:39;;;;;;;13.77;9.27;;;;;;;;;;5023227;28;20447;-94
2021/04/09 07:27:05;;;;;;;17.10;10.13;;;;;;;;;;5019020;28;20460;-95
2021/04/09 07:29:35;;;;;;;10.80;8.47;;;;;;;;;;5022071;28;20479;-94
2021/04/09 07:32:21;;;;;;;10.93;7.70;;;;;;;;;;5021548;28;20458;-96
2021/04/09 07:34:51;;;;;;;12.43;7.57;;;;;;;;;;5020426;28;20506;-94
2021/04/09 07:37:17;;;;;;;15.70;8.27;;;;;;;;;;5025371;28;20531;-95
2021/04/09 07:39:44;;;;;;;10.37;7.03;;;;;;;;;;5022380;28;20456;-96
2021/04/09 07:42:11;;;;;;;9.47;7.90;;;;;;;;;;5027443;28;20440;-95
2021/04/09 07:44:38;;;;;;;13.10;7.57;;;;;;;;;;5027901;28;20479;-95
2021/04/09 07:47:07;;;;;;;10.43;6.63;;;;;;;;;;5020105;28;20475;-95
2021/04/09 07:49:33;;;;;;;12.63;7.20;;;;;;;;;;5024813;28;20470;-96
2021/04/09 07:52:09;;;;;;;9.80;7.00;;;;;;;;;;5022258;28;20541;-95
2021/04/09 07:54:35;;;;;;;8.80;6.90;;;;;;;;;;5023852;28;21019;-95
2021/04/09 07:57:01;;;;;;;10.03;7.33;;;;;;;;;;5020672;28;21029;-95
2021/04/09 07:59:37;;;;;;;13.33;7.67;;;;;;;;;;5015669;28;20444;-93
2021/04/09 08:02:03;;;;;;;10.60;6.63;;;;;;;;;;5020724;28;20459;-94
2021/04/09 08:04:36;;;;;;;9.47;6.50;;;;;;;;;;5023844;28;20464;-94
2021/04/09 08:07:02;;;;;;;9.13;6.43;;;;;;;;;;5022302;28;20470;-93
2021/04/09 08:09:46;;;;;;;5.63;5.13;;;;;;;;;;5023927;28;20447;-96
2021/04/09 08:12:24;;;;;;;6.87;5.50;;;;;;;;;;5009213;28;20476;-95
2021/04/09 08:14:52;;;;;;;5.97;5.37;;;;;;;;;;5030746;28;20483;-95
2021/04/09 08:17:19;;;;;;;7.93;5.53;;;;;;;;;;5023273;28;20455;-94
2021/04/09 08:19:52;;;;;;;7.00;5.30;;;;;;;;;;5021226;28;20451;-94
2021/04/09 08:22:18;;;;;;;7.90;4.63;;;;;;;;;;5019494;28;20503;-93
2021/04/09 08:24:45;;;;;;;5.53;4.83;;;;;;;;;;5019564;28;20444;-92
2021/04/09 08:27:12;;;;;;;6.33;5.30;;;;;;;;;;5018064;28;20827;-94
2021/04/09 08:29:38;;;;;;;6.00;4.60;;;;;;;;;;5015832;28;20960;-94
2021/04/09 08:32:07;;;;;;;7.60;3.80;;;;;;;;;;5023009;28;20444;-96
2021/04/09 08:34:33;;;;;;;5.57;4.63;;;;;;;;;;5023126;28;20493;-96
2021/04/09 08:37:00;;;;;;;4.77;4.00;;;;;;;;;;5022509;28;20477;-95
2021/04/09 08:39:26;;;;;;;5.07;3.60;;;;;;;;;;5024837;28;20473;-95
2021/04/09 08:41:55;;;;;;;5.33;3.80;;;;;;;;;;5002416;28;20456;-93
2021/04/09 08:44:22;;;;;;;5.47;4.13;;;;;;;;;;5025665;28;20548;-94
2021/04/09 08:46:48;;;;;;;4.90;4.40;;;;;;;;;;5026497;28;20452;-94
2021/04/09 08:49:15;;;;;;;5.43;4.47;;;;;;;;;;5026097;28;20482;-94
2021/04/09 08:51:42;;;;;;;6.50;3.67;;;;;;;;;;5020991;28;20464;-94
2021/04/09 08:54:18;;;;;;;4.87;3.77;;;;;;;;;;5022303;28;20491;-96
2021/04/09 08:56:44;;;;;;;5.47;4.20;;;;;;;;;;5023908;28;20449;-94
2021/04/09 08:59:11;;;;;;;4.60;4.10;;;;;;;;;;5023488;28;20494;-92
2021/04/09 09:01:37;;;;;;;6.60;4.40;;;;;;;;;;5022452;28;20448;-96
2021/04/09 09:04:21;;;;;;;5.07;3.80;;;;;;;;;;5011208;28;20524;-93
2021/04/09 09:06:57;;;;;;;4.13;3.80;;;;;;;;;;5011675;28;20461;-96
2021/04/09 09:09:27;;;;;;;3.30;2.70;;;;;;;;;;5018664;28;20484;-93
2021/04/09 09:11:53;;;;;;;5.40;3.60;;;;;;;;;;5022804;28;20440;-93
2021/04/09 09:14:36;;;;;;;5.73;3.67;;;;;;;;;;5018647;28;20493;-92
2021/04/09 09:17:17;;;;;;;3.50;3.20;;;;;;;;;;5023304;28;20569;-89
2021/04/09 09:19:43;;;;;;;3.67;3.37;;;;;;;;;;5022869;28;20459;-89
2021/04/09 09:22:10;;;;;;;3.63;3.33;;;;;;;;;;5024552;28;20449;-92
2021/04/09 09:24:58;;;;;;;4.70;3.40;;;;;;;;;;5024876;28;21711;-94
2021/04/09 09:27:39;;;;;;;5.03;3.27;;;;;;;;;;5023508;28;20461;-92
2021/04/09 09:30:26;;;;;;;3.50;3.20;;;;;;;;;;5017329;28;20509;-96
2021/04/09 09:33:09;;;;;;;5.33;2.80;;;;;;;;;;5024601;28;20467;-94
2021/04/09 09:35:53;;;;;;;4.40;3.50;;;;;;;;;;5019635;28;20485;-91
2021/04/09 09:38:34;;;;;;;8.77;3.10;;;;;;;;;;5014614;28;20448;-95
2021/04/09 09:41:02;;;;;;;5.90;2.97;;;;;;;;;;5019849;28;20467;-96
2021/04/09 09:43:31;;;;;;;3.60;3.30;;;;;;;;;;5022073;28;20455;-93
2021/04/09 09:45:58;;;;;;;3.20;2.90;;;;;;;;;;5019726;28;20462;-95
2021/04/09 09:48:24;;;;;;;4.30;3.10;;;;;;;;;;5023714;28;20462;-92
2021/04/09 09:50:50;;;;;;;3.63;3.33;;;;;;;;;;5020590;28;20484;-91
2021/04/09 09:53:16;;;;;;;5.37;3.20;;;;;;;;;;5026728;28;20850;-93
2021/04/09 09:55:43;;;;;;;3.40;3.10;;;;;;;;;;5018539;28;20502;-94
2021/04/09 09:58:10;;;;;;;4.73;3.27;;;;;;;;;;5025304;28;20438;-95
2021/04/09 10:00:37;;;;;;;4.73;3.20;;;;;;;;;;5019909;28;20460;-93
2021/04/09 10:03:12;;;;;;;4.80;3.30;;;;;;;;;;5021123;28;20451;-94
2021/04/09 10:05:38;;;;;;;3.80;3.40;;;;;;;;;;5019816;28;20490;-92
2021/04/09 10:08:05;;;;;;;4.57;3.40;;;;;;;;;;5023235;28;21168;-96
2021/04/09 10:10:36;;;;;;;3.83;3.53;;;;;;;;;;5026885;28;20521;-94
2021/04/09 10:13:13;;;;;;;5.63;2.90;;;;;;;;;;5026960;28;20456;-96
2021/04/09 10:15:39;;;;;;;6.13;3.13;;;;;;;;;;5025336;28;20507;-95
2021/04/09 10:18:06;;;;;;;3.43;3.10;;;;;;;;;;5021853;28;20489;-93
2021/04/09 10:20:33;;;;;;;6.57;3.13;;;;;;;;;;5026002;28;20471;-96
2021/04/09 10:22:59;;;;;;;7.73;3.37;;;;;;;;;;5025501;28;20440;-91
2021/04/09 10:25:27;;;;;;;7.00;3.60;;;;;;;;;;5022763;28;20459;-94
2021/04/09 10:27:53;;;;;;;3.50;3.20;;;;;;;;;;5020899;28;20466;-94
2021/04/09 10:30:25;;;;;;;3.40;3.03;;;;;;;;;;5027226;28;20456;-96
2021/04/09 10:32:51;;;;;;;3.83;3.47;;;;;;;;;;5022120;28;20448;-94
2021/04/09 10:35:21;;;;;;;5.27;3.43;;;;;;;;;;5023370;28;20497;-94
2021/04/09 10:37:48;;;;;;;3.13;2.93;;;;;;;;;;5025237;28;20479;-96
2021/04/09 10:40:14;;;;;;;8.07;3.57;;;;;;;;;;5018867;28;20459;-96
2021/04/09 10:42:40;;;;;;;4.53;3.40;;;;;;;;;;5022031;28;20981;-95
2021/04/09 10:45:16;;;;;;;5.00;3.47;;;;;;;;;;5024475;28;20455;-93
2021/04/09 10:47:43;;;;;;;6.63;3.60;;;;;;;;;;5024619;28;20459;-96
2021/04/09 10:50:09;;;;;;;5.63;3.13;;;;;;;;;;5029521;28;20460;-93
2021/04/09 10:52:35;;;;;;;3.53;2.83;;;;;;;;;;5034726;28;20475;-93
2021/04/09 10:55:03;;;;;;;3.20;2.90;;;;;;;;;;5029812;28;20541;-92
2021/04/09 10:57:34;;;;;;;7.83;3.20;;;;;;;;;;5024992;28;20456;-94
2021/04/09 11:00:02;;;;;;;3.10;2.80;;;;;;;;;;5019296;28;20448;-93
2021/04/09 11:02:30;;;;;;;4.90;3.47;;;;;;;;;;5024534;28;20950;-96
2021/04/09 11:04:57;;;;;;;2.77;2.57;;;;;;;;;;5022699;28;20458;-94
2021/04/09 11:07:38;;;;;;;3.20;2.80;;;;;;;;;;5026270;28;21084;-96
2021/04/09 11:10:06;;;;;;;4.23;2.70;;;;;;;;;;5021785;28;20460;-95
2021/04/09 11:12:32;;;;;;;4.27;2.93;;;;;;;;;;5025174;28;20446;-92
2021/04/09 11:15:06;;;;;;;5.20;3.37;;;;;;;;;;5023397;28;20516;-93
2021/04/09 11:17:33;;;;;;;2.70;2.50;;;;;;;;;;5021780;28;20470;-94
2021/04/09 11:20:00;;;;;;;2.90;2.63;;;;;;;;;;5024959;28;20458;-93
2021/04/09 11:22:26;;;;;;;4.93;2.83;;;;;;;;;;5025221;28;20498;-90
2021/04/09 11:24:58;;;;;;;3.80;3.40;;;;;;;;;;5027018;28;20460;-95
2021/04/09 11:27:27;;;;;;;3.30;2.80;;;;;;;;;;5024722;28;20514;-92
2021/04/09 11:30:10;;;;;;;3.87;3.07;;;;;;;;;;5024272;28;20464;-92
2021/04/09 11:32:40;;;;;;;3.20;2.90;;;;;;;;;;5016914;28;20460;-95
2021/04/09 11:35:08;;;;;;;4.00;3.17;;;;;;;;;;5027253;28;20502;-93
2021/04/09 11:37:41;;;;;;;6.10;3.10;;;;;;;;;;5026161;28;20498;-95
2021/04/09 11:40:10;;;;;;;3.23;2.40;;;;;;;;;;5025025;28;20499;-96
2021/04/09 11:42:37;;;;;;;4.50;3.13;;;;;;;;;;5024950;28;20452;-94
2021/04/09 11:45:05;;;;;;;2.73;2.53;;;;;;;;;;5013542;28;20506;-94
2021/04/09 11:47:33;;;;;;;3.40;2.90;;;;;;;;;;5021724;28;20475;-93
2021/04/09 11:50:00;;;;;;;3.87;3.57;;;;;;;;;;5020937;28;20456;-95
2021/04/09 11:52:26;;;;;;;2.93;2.73;;;;;;;;;;5028822;28;20483;-93
2021/04/09 11:54:55;;;;;;;4.40;3.30;;;;;;;;;;5026811;28;20472;-95
2021/04/09 11:57:22;;;;;;;5.33;2.93;;;;;;;;;;5029465;28;20796;-91
2021/04/09 11:59:51;;;;;;;3.20;2.83;;;;;;;;;;5028974;28;20459;-94
2021/04/09 12:02:21;;;;;;;4.23;2.93;;;;;;;;;;5022000;28;20450;-92
2021/04/09 12:04:50;;;;;;;2.50;2.30;;;;;;;;;;5026882;28;20448;-96
2021/04/09 12:07:17;;;;;;;2.93;2.73;;;;;;;;;;5025652;28;20474;-95
2021/04/09 12:09:44;;;;;;;2.53;2.33;;;;;;;;;;5006645;28;20463;-91
2021/04/09 12:12:14;;;;;;;3.60;2.87;;;;;;;;;;5019694;28;20987;-91
2021/04/09 12:14:41;;;;;;;2.90;2.70;;;;;;;;;;5025429;28;20503;-95
2021/04/09 12:17:08;;;;;;;3.10;2.80;;;;;;;;;;5019276;28;21043;-93
2021/04/09 12:19:35;;;;;;;2.77;2.57;;;;;;;;;;5021943;28;20444;-95
2021/04/09 12:22:01;;;;;;;3.23;2.83;;;;;;;;;;5021332;28;20475;-93
2021/04/09 12:24:27;;;;;;;3.80;2.77;;;;;;;;;;5023253;28;20451;-93
2021/04/09 12:26:53;;;;;;;3.37;2.43;;;;;;;;;;5011713;28;20452;-94
2021/04/09 12:29:19;;;;;;;2.93;2.63;;;;;;;;;;5030055;28;20447;-92
2021/04/09 12:31:45;;;;;;;4.60;2.77;;;;;;;;;;5024744;28;20459;-95
2021/04/09 12:34:13;;;;;;;2.47;2.27;;;;;;;;;;5025646;28;20451;-96
2021/04/09 12:36:40;;;;;;;2.60;2.40;;;;;;;;;;5021324;28;20973;-94
2021/04/09 12:39:06;;;;;;;2.77;2.57;;;;;;;;;;5021531;28;20456;-95
2021/04/09 12:41:32;;;;;;;2.40;2.20;;;;;;;;;;5020312;28;20448;-93
2021/04/09 12:43:59;;;;;;;3.10;2.70;;;;;;;;;;5024010;28;20447;-94
2021/04/09 12:46:26;;;;;;;3.23;2.23;;;;;;;;;;5022425;28;20474;-95
2021/04/09 12:48:54;;;;;;;2.77;2.40;;;;;;;;;;5020990;28;20452;-96
2021/04/09 12:51:22;;;;;;;2.70;2.33;;;;;;;;;;5024604;28;20467;-92
2021/04/09 12:53:48;;;;;;;2.90;2.40;;;;;;;;;;5019729;28;20488;-92
2021/04/09 12:56:14;;;;;;;2.67;2.47;;;;;;;;;;5021153;28;20499;-93
2021/04/09 12:58:42;;;;;;;2.57;2.37;;;;;;;;;;5027889;28;20467;-96
2021/04/09 13:01:09;;;;;;;2.30;2.10;;;;;;;;;;5030338;28;20440;-93
2021/04/09 13:03:35;;;;;;;2.40;2.30;;;;;;;;;;5022200;28;20459;-93
2021/04/09 13:06:01;;;;;;;2.93;2.70;;;;;;;;;;5020818;28;20551;-92
2021/04/09 13:08:27;;;;;;;2.47;2.27;;;;;;;;;;5017893;28;21622;-92
2021/04/09 13:10:53;;;;;;;2.30;2.10;;;;;;;;;;5020551;28;20456;-92
2021/04/09 13:16:00;;;;;;;2.30;2.10;;;;;;;;;;5023053;28;20502;-94
2021/04/09 13:18:29;;;;;;;6.50;2.20;;;;;;;;;;5019074;28;20482;-94
2021/04/09 13:21:02;;;;;;;2.83;2.60;;;;;;;;;;5015634;28;20436;-95
2021/04/09 13:23:29;;;;;;;1.90;1.80;;;;;;;;;;5024925;28;20491;-96
2021/04/09 13:25:55;;;;;;;2.50;2.20;;;;;;;;;;5017089;28;20468;-96
2021/04/09 13:28:22;;;;;;;2.27;2.07;;;;;;;;;;5035326;28;20454;-96
2021/04/09 13:30:55;;;;;;;3.30;2.10;;;;;;;;;;5034273;28;20448;-91
2021/04/09 13:33:21;;;;;;;3.50;2.63;;;;;;;;;;5029527;28;20448;-94
2021/04/09 13:35:49;;;;;;;2.20;2.00;;;;;;;;;;5005428;28;20486;-95
2021/04/09 13:38:17;;;;;;;2.50;2.27;;;;;;;;;;5019842;28;20464;-93
2021/04/09 13:40:44;;;;;;;3.60;2.13;;;;;;;;;;5017168;28;20464;-95
2021/04/09 13:43:10;;;;;;;2.43;2.23;;;;;;;;;;5021916;28;20456;-96
2021/04/09 13:45:36;;;;;;;2.27;2.17;;;;;;;;;;5018455;28;20514;-92
2021/04/09 13:48:02;;;;;;;2.30;2.10;;;;;;;;;;5019253;28;20482;-89
2021/04/09 13:50:28;;;;;;;2.53;2.00;;;;;;;;;;5016175;28;20464;-94
2021/04/09 13:52:54;;;;;;;2.63;2.43;;;;;;;;;;5018337;28;20487;-91
2021/04/09 13:55:20;;;;;;;2.63;2.40;;;;;;;;;;5017824;28;21321;-90
2021/04/09 13:57:47;;;;;;;2.20;2.00;;;;;;;;;;5013914;28;20471;-92
2021/04/09 14:00:14;;;;;;;2.30;2.10;;;;;;;;;;5024568;28;20463;-93
2021/04/09 14:02:40;;;;;;;2.40;2.20;;;;;;;;;;5020793;28;20938;-92
2021/04/09 14:05:06;;;;;;;2.93;2.27;;;;;;;;;;5030887;28;20451;-90
2021/04/09 14:07:32;;;;;;;3.73;2.63;;;;;;;;;;5028104;28;20530;-89
2021/04/09 14:09:58;;;;;;;2.90;2.23;;;;;;;;;;5020021;28;20475;-91
2021/04/09 14:12:24;;;;;;;3.67;2.40;;;;;;;;;;5017034;28;20878;-94
2021/04/09 14:14:51;;;;;;;3.63;2.20;;;;;;;;;;5024743;28;20517;-94
2021/04/09 14:17:17;;;;;;;2.40;2.20;;;;;;;;;;5021567;28;20454;-93
2021/04/09 14:19:44;;;;;;;2.23;2.03;;;;;;;;;;5024578;28;20533;-95
2021/04/09 14:22:10;;;;;;;3.20;2.40;;;;;;;;;;5025422;28;20526;-94
2021/04/09 14:24:36;;;;;;;2.20;2.10;;;;;;;;;;5024243;28;20487;-91
2021/04/09 14:27:02;;;;;;;3.03;2.23;;;;;;;;;;5021958;28;20479;-92
2021/04/09 14:29:28;;;;;;;2.30;2.10;;;;;;;;;;5025235;28;20455;-95
2021/04/09 14:31:55;;;;;;;3.60;2.50;;;;;;;;;;5023101;28;20460;-90
2021/04/09 14:34:22;;;;;;;2.70;2.50;;;;;;;;;;5025747;28;20459;-91
2021/04/09 14:36:48;;;;;;;5.70;2.60;;;;;;;;;;5029729;28;20470;-92
2021/04/09 14:39:14;;;;;;;3.57;2.23;;;;;;;;;;5030060;28;20447;-93
2021/04/09 14:41:42;;;;;;;3.00;2.20;;;;;;;;;;5017174;28;20471;-94
2021/04/09 14:44:08;;;;;;;2.57;2.37;;;;;;;;;;5023522;28;20474;-92
2021/04/09 14:46:34;;;;;;;4.43;2.30;;;;;;;;;;5021393;28;20452;-95
2021/04/09 14:49:04;;;;;;;2.70;2.50;;;;;;;;;;5022925;28;20466;-96
2021/04/09 14:51:30;;;;;;;2.90;2.27;;;;;;;;;;5023555;28;20460;-93
2021/04/09 14:53:58;;;;;;;3.00;2.30;;;;;;;;;;5021277;28;20454;-93
2021/04/09 14:56:26;;;;;;;2.50;2.30;;;;;;;;;;5022801;28;20497;-93
2021/04/09 14:58:52;;;;;;;3.50;2.50;;;;;;;;;;5027548;28;20478;-91
2021/04/09 15:01:19;;;;;;;2.63;2.43;;;;;;;;;;5025748;28;20475;-91
2021/04/09 15:03:45;;;;;;;2.77;2.40;;;;;;;;;;5021981;28;20459;-92
2021/04/09 15:06:12;;;;;;;2.67;2.47;;;;;;;;;;5022713;28;20827;-92
2021/04/09 15:08:38;;;;;;;4.50;2.57;;;;;;;;;;5025644;28;20467;-95
2021/04/09 15:11:04;;;;;;;3.20;2.40;;;;;;;;;;5025946;28;20967;-93
2021/04/09 15:13:30;;;;;;;2.90;2.60;;;;;;;;;;5020084;28;20464;-93
2021/04/09 15:15:56;;;;;;;4.53;2.33;;;;;;;;;;5022958;28;20496;-91
2021/04/09 15:18:22;;;;;;;3.23;2.33;;;;;;;;;;5022352;28;20474;-91
2021/04/09 15:20:48;;;;;;;4.40;2.40;;;;;;;;;;5016585;28;20450;-92
2021/04/09 15:23:15;;;;;;;3.30;2.50;;;;;;;;;;5018349;28;20464;-93
2021/04/09 15:25:41;;;;;;;7.13;2.43;;;;;;;;;;5019878;28;20965;-91
2021/04/09 15:28:07;;;;;;;2.60;2.37;;;;;;;;;;5019062;28;20456;-93
2021/04/09 15:30:33;;;;;;;3.63;2.47;;;;;;;;;;5022018;28;20460;-90
2021/04/09 15:32:59;;;;;;;3.07;2.77;;;;;;;;;;5021252;28;20452;-92
2021/04/09 15:35:25;;;;;;;3.90;2.50;;;;;;;;;;5020612;28;20538;-93
2021/04/09 15:37:51;;;;;;;3.30;3.00;;;;;;;;;;5023483;28;20447;-92
2021/04/09 15:40:18;;;;;;;2.80;2.60;;;;;;;;;;5017702;28;20527;-91
2021/04/09 15:42:44;;;;;;;4.10;3.70;;;;;;;;;;5024407;28;20464;-91
2021/04/09 15:45:11;;;;;;;3.77;2.70;;;;;;;;;;5024931;28;20535;-91
2021/04/09 15:47:37;;;;;;;5.03;2.97;;;;;;;;;;5022018;28;20459;-93
2021/04/09 15:50:04;;;;;;;4.43;3.00;;;;;;;;;;5020705;28;20480;-94
2021/04/09 15:52:30;;;;;;;3.10;2.40;;;;;;;;;;5022622;28;20490;-93
2021/04/09 15:54:56;;;;;;;4.40;3.30;;;;;;;;;;5020866;28;20483;-93
2021/04/09 15:57:23;;;;;;;3.23;2.93;;;;;;;;;;5022137;28;20455;-93
2021/04/09 15:59:59;;;;;;;3.40;3.10;;;;;;;;;;5029651;28;20463;-96
2021/04/09 16:02:27;;;;;;;4.10;3.00;;;;;;;;;;5035824;28;20482;-94
2021/04/09 16:04:53;;;;;;;3.97;3.20;;;;;;;;;;5030823;28;20536;-96
2021/04/09 16:07:20;;;;;;;3.50;3.17;;;;;;;;;;5015899;28;20432;-96
2021/04/09 16:09:46;;;;;;;4.53;2.70;;;;;;;;;;5031434;28;20475;-93
2021/04/09 16:12:40;;;;;;;15.80;14.40;;;;;;;;;;5035080;28;20472;-96
2021/04/09 16:15:08;;;;;;;8.03;6.67;;;;;;;;;;5030581;28;20566;-95